createdAt,value
2018-08-09T00:00:47.984Z,22.14
2018-08-09T00:01:47.924Z,22.17
2018-08-09T00:02:47.912Z,22.29
2018-08-09T00:03:47.932Z,22.26
2018-08-09T00:04:47.985Z,22.27
2018-08-09T00:05:47.990Z,22.35
2018-08-09T00:06:47.981Z,22.27
2018-08-09T00:07:47.969Z,22.27
2018-08-09T00:08:47.992Z,22.19
2018-08-09T00:09:48.404Z,22.11
2018-08-09T00:10:47.951Z,22.20
2018-08-09T00:11:54.129Z,22.20
2018-08-09T00:12:53.913Z,22.21
2018-08-09T00:13:53.942Z,22.26
2018-08-09T00:14:47.924Z,22.06
2018-08-09T00:15:47.888Z,22.04
2018-08-09T00:16:48.183Z,22.17
2018-08-09T00:17:47.561Z,22.14
2018-08-09T00:18:48.023Z,22.15
2018-08-09T00:19:48.065Z,22.19
2018-08-09T00:20:48.084Z,22.19
2018-08-09T00:21:47.981Z,22.20
2018-08-09T00:22:48.016Z,22.17
2018-08-09T00:23:54.494Z,22.20
2018-08-09T00:25:01.935Z,22.26
2018-08-09T00:25:47.922Z,22.19
2018-08-09T00:26:48.471Z,22.21
2018-08-09T00:27:47.942Z,22.17
2018-08-09T00:28:53.905Z,22.24
2018-08-09T00:29:47.963Z,22.19
2018-08-09T00:31:01.295Z,22.09
2018-08-09T00:31:47.968Z,22.20
2018-08-09T00:32:47.897Z,22.17
2018-08-09T00:33:47.908Z,22.24
2018-08-09T00:34:49.721Z,22.15
2018-08-09T00:35:47.979Z,22.21
2018-08-09T00:36:53.949Z,22.26
2018-08-09T00:38:01.937Z,22.09
2018-08-09T00:38:47.933Z,22.01
2018-08-09T00:39:47.931Z,22.19
2018-08-09T00:40:47.955Z,22.08
2018-08-09T00:41:47.893Z,22.17
2018-08-09T00:42:48.450Z,22.21
2018-08-09T00:44:48.098Z,22.05
2018-08-09T00:45:47.962Z,22.12
2018-08-09T00:46:47.992Z,22.15
2018-08-09T00:47:48.455Z,22.23
2018-08-09T00:48:47.936Z,22.12
2018-08-09T00:49:48.121Z,22.11
2018-08-09T00:50:54.124Z,22.17
2018-08-09T00:51:53.931Z,22.04
2018-08-09T00:52:53.921Z,22.12
2018-08-09T00:53:53.922Z,22.17
2018-08-09T00:54:53.914Z,22.24
2018-08-09T00:55:53.929Z,22.21
2018-08-09T00:56:47.913Z,22.15
2018-08-09T00:57:47.916Z,22.12
2018-08-09T00:58:47.920Z,22.15
2018-08-09T00:59:47.949Z,22.04
2018-08-09T01:00:47.926Z,22.17
2018-08-09T01:01:47.922Z,22.09
2018-08-09T01:02:47.916Z,22.12
2018-08-09T01:03:47.977Z,22.11
2018-08-09T01:04:47.920Z,21.99
2018-08-09T01:05:47.938Z,22.01
2018-08-09T01:06:48.147Z,21.98
2018-08-09T01:07:48.147Z,21.99
2018-08-09T01:08:48.146Z,21.99
2018-08-09T01:09:47.939Z,22.04
2018-08-09T01:10:47.974Z,22.08
2018-08-09T01:11:47.922Z,22.05
2018-08-09T01:12:47.987Z,22.11
2018-08-09T01:13:47.940Z,22.05
2018-08-09T01:14:48.150Z,21.99
2018-08-09T01:15:48.156Z,21.98
2018-08-09T01:16:47.933Z,22.05
2018-08-09T01:17:47.939Z,21.96
2018-08-09T01:18:47.982Z,22.02
2018-08-09T01:19:47.926Z,22.08
2018-08-09T01:20:48.162Z,22.05
2018-08-09T01:21:48.155Z,22.01
2018-08-09T01:22:48.142Z,21.98
2018-08-09T01:23:48.152Z,22.02
2018-08-09T01:24:47.982Z,22.02
2018-08-09T01:25:48.155Z,22.12
2018-08-09T01:26:48.154Z,22.09
2018-08-09T01:27:48.160Z,22.12
2018-08-09T01:28:48.162Z,22.19
2018-08-09T01:29:48.136Z,22.01
2018-08-09T01:30:47.948Z,22.05
2018-08-09T01:31:47.888Z,22.02
2018-08-09T01:32:47.959Z,21.86
2018-08-09T01:33:47.967Z,21.98
2018-08-09T01:34:48.156Z,22.02
2018-08-09T01:35:47.924Z,22.04
2018-08-09T01:36:47.920Z,21.90
2018-08-09T01:37:47.908Z,21.86
2018-08-09T01:38:47.988Z,21.98
2018-08-09T01:39:47.965Z,22.01
2018-08-09T01:40:47.927Z,22.14
2018-08-09T01:41:47.927Z,22.05
2018-08-09T01:42:47.917Z,22.08
2018-08-09T01:43:48.166Z,21.98
2018-08-09T01:44:47.919Z,22.04
2018-08-09T01:45:47.923Z,22.05
2018-08-09T01:46:49.739Z,21.94
2018-08-09T01:47:48.143Z,21.86
2018-08-09T01:48:48.168Z,21.82
2018-08-09T01:49:48.154Z,21.81
2018-08-09T01:50:48.169Z,21.77
2018-08-09T01:51:48.167Z,21.68
2018-08-09T01:52:47.977Z,21.74
2018-08-09T01:53:47.974Z,21.73
2018-08-09T01:54:49.740Z,21.77
2018-08-09T01:55:50.163Z,21.85
2018-08-09T01:56:47.969Z,21.70
2018-08-09T01:57:47.985Z,21.75
2018-08-09T01:58:48.170Z,21.66
2018-08-09T01:59:48.168Z,21.70
2018-08-09T02:00:49.763Z,21.61
2018-08-09T02:01:48.175Z,21.81
2018-08-09T02:02:47.998Z,21.70
2018-08-09T02:03:47.982Z,21.64
2018-08-09T02:04:48.264Z,21.59
2018-08-09T02:05:48.174Z,21.67
2018-08-09T02:06:49.775Z,21.73
2018-08-09T02:07:48.022Z,21.67
2018-08-09T02:08:47.946Z,21.63
2018-08-09T02:09:48.175Z,21.66
2018-08-09T02:10:47.922Z,21.64
2018-08-09T02:11:48.201Z,21.67
2018-08-09T02:12:47.613Z,21.68
2018-08-09T02:13:47.935Z,21.63
2018-08-09T02:14:48.069Z,21.49
2018-08-09T02:15:48.025Z,21.70
2018-08-09T02:16:48.021Z,21.66
2018-08-09T02:17:48.071Z,21.55
2018-08-09T02:18:48.046Z,21.55
2018-08-09T02:19:47.958Z,21.48
2018-08-09T02:20:47.947Z,21.51
2018-08-09T02:21:48.090Z,21.52
2018-08-09T02:22:48.017Z,21.56
2018-08-09T02:23:48.073Z,21.53
2018-08-09T02:24:48.527Z,21.59
2018-08-09T02:25:47.961Z,21.52
2018-08-09T02:26:48.016Z,21.53
2018-08-09T02:27:47.997Z,21.70
2018-08-09T02:28:47.940Z,21.52
2018-08-09T02:29:47.648Z,21.66
2018-08-09T02:30:48.036Z,21.64
2018-08-09T02:31:48.149Z,21.67
2018-08-09T02:32:47.982Z,21.70
2018-08-09T02:33:48.150Z,21.59
2018-08-09T02:34:48.089Z,21.63
2018-08-09T02:35:48.016Z,21.66
2018-08-09T02:36:48.007Z,21.66
2018-08-09T02:37:48.221Z,21.61
2018-08-09T02:38:47.537Z,21.55
2018-08-09T02:39:48.080Z,21.56
2018-08-09T02:40:47.963Z,21.52
2018-08-09T02:41:47.983Z,21.51
2018-08-09T02:42:48.013Z,21.42
2018-08-09T02:43:48.057Z,21.42
2018-08-09T02:44:48.065Z,21.42
2018-08-09T02:45:48.009Z,21.49
2018-08-09T02:46:48.053Z,21.37
2018-08-09T02:47:48.086Z,21.55
2018-08-09T02:48:48.206Z,21.55
2018-08-09T02:49:48.791Z,21.56
2018-08-09T02:50:47.965Z,21.51
2018-08-09T02:51:47.982Z,21.53
2018-08-09T02:52:47.985Z,21.55
2018-08-09T02:53:47.977Z,21.48
2018-08-09T02:54:47.981Z,21.55
2018-08-09T02:55:47.980Z,21.45
2018-08-09T02:56:47.993Z,21.37
2018-08-09T02:57:47.988Z,21.36
2018-08-09T02:58:47.992Z,21.33
2018-08-09T02:59:47.975Z,21.30
2018-08-09T03:00:48.001Z,21.37
2018-08-09T03:01:48.001Z,21.40
2018-08-09T03:02:47.971Z,21.37
2018-08-09T03:03:48.000Z,21.37
2018-08-09T03:04:48.000Z,21.33
2018-08-09T03:05:47.971Z,21.22
2018-08-09T03:06:48.171Z,21.34
2018-08-09T03:07:47.986Z,21.26
2018-08-09T03:08:48.015Z,21.30
2018-08-09T03:09:47.992Z,21.27
2018-08-09T03:10:48.004Z,21.31
2018-08-09T03:11:47.989Z,21.31
2018-08-09T03:12:48.017Z,21.21
2018-08-09T03:13:48.178Z,21.40
2018-08-09T03:14:48.182Z,21.22
2018-08-09T03:15:48.038Z,21.09
2018-08-09T03:16:48.202Z,21.06
2018-08-09T03:17:48.178Z,21.11
2018-08-09T03:18:48.009Z,21.16
2018-08-09T03:19:48.018Z,21.01
2018-08-09T03:20:48.544Z,21.09
2018-08-09T03:21:48.119Z,20.98
2018-08-09T03:22:48.205Z,21.01
2018-08-09T03:23:48.507Z,21.08
2018-08-09T03:24:48.031Z,21.09
2018-08-09T03:25:47.968Z,20.91
2018-08-09T03:26:47.982Z,20.98
2018-08-09T03:27:47.981Z,21.03
2018-08-09T03:28:47.966Z,21.08
2018-08-09T03:29:48.017Z,21.09
2018-08-09T03:30:47.980Z,21.08
2018-08-09T03:31:48.236Z,21.05
2018-08-09T03:32:47.556Z,21.16
2018-08-09T03:33:48.021Z,21.11
2018-08-09T03:34:47.985Z,21.08
2018-08-09T03:35:47.985Z,21.00
2018-08-09T03:36:48.017Z,21.05
2018-08-09T03:37:48.065Z,20.93
2018-08-09T03:38:48.004Z,20.81
2018-08-09T03:39:48.029Z,20.82
2018-08-09T03:40:48.042Z,20.90
2018-08-09T03:41:48.049Z,21.00
2018-08-09T03:42:48.522Z,21.12
2018-08-09T03:43:48.206Z,20.91
2018-08-09T03:44:48.526Z,20.90
2018-08-09T03:45:48.184Z,20.96
2018-08-09T03:46:48.002Z,20.81
2018-08-09T03:47:48.020Z,20.83
2018-08-09T03:48:48.024Z,20.93
2018-08-09T03:49:47.956Z,20.88
2018-08-09T03:50:48.287Z,20.90
2018-08-09T03:51:47.973Z,20.85
2018-08-09T03:52:48.188Z,20.81
2018-08-09T03:53:48.197Z,20.90
2018-08-09T03:54:48.016Z,20.88
2018-08-09T03:55:47.980Z,20.94
2018-08-09T03:56:48.198Z,20.87
2018-08-09T03:57:48.012Z,20.83
2018-08-09T03:58:48.190Z,20.75
2018-08-09T03:59:48.292Z,20.78
2018-08-09T04:00:46.520Z,20.69
2018-08-09T04:01:46.560Z,20.83
2018-08-09T04:02:47.211Z,20.71
2018-08-09T04:03:47.658Z,20.69
2018-08-09T04:04:47.200Z,20.76
2018-08-09T04:05:48.062Z,20.79
2018-08-09T04:06:48.063Z,20.81
2018-08-09T04:07:48.102Z,20.78
2018-08-09T04:08:47.697Z,20.79
2018-08-09T04:09:47.654Z,20.87
2018-08-09T04:10:48.076Z,20.79
2018-08-09T04:11:47.631Z,20.72
2018-08-09T04:12:46.534Z,20.76
2018-08-09T04:13:47.668Z,20.73
2018-08-09T04:14:47.662Z,20.82
2018-08-09T04:15:47.609Z,20.90
2018-08-09T04:16:48.185Z,20.83
2018-08-09T04:17:47.501Z,20.79
2018-08-09T04:18:47.699Z,20.76
2018-08-09T04:19:47.688Z,20.68
2018-08-09T04:20:50.216Z,20.63
2018-08-09T04:21:47.321Z,20.63
2018-08-09T04:22:48.662Z,20.58
2018-08-09T04:23:47.702Z,20.64
2018-08-09T04:24:48.205Z,20.61
2018-08-09T04:25:47.585Z,20.61
2018-08-09T04:26:48.197Z,20.69
2018-08-09T04:27:48.404Z,20.71
2018-08-09T04:28:48.034Z,20.72
2018-08-09T04:29:48.037Z,20.78
2018-08-09T04:30:48.090Z,20.82
2018-08-09T04:31:48.308Z,20.72
2018-08-09T04:32:48.228Z,20.71
2018-08-09T04:33:48.060Z,20.79
2018-08-09T04:34:48.318Z,20.79
2018-08-09T04:35:48.107Z,20.88
2018-08-09T04:36:48.223Z,20.76
2018-08-09T04:37:48.581Z,20.83
2018-08-09T04:38:49.713Z,20.82
2018-08-09T04:39:48.099Z,20.85
2018-08-09T04:40:48.072Z,20.93
2018-08-09T04:41:48.530Z,20.85
2018-08-09T04:42:48.229Z,20.90
2018-08-09T04:43:48.001Z,20.87
2018-08-09T04:44:48.255Z,20.87
2018-08-09T04:45:49.890Z,20.82
2018-08-09T04:46:48.086Z,20.88
2018-08-09T04:47:48.064Z,20.88
2018-08-09T04:48:48.135Z,20.88
2018-08-09T04:49:48.279Z,20.83
2018-08-09T04:50:48.307Z,21.01
2018-08-09T04:51:48.006Z,20.97
2018-08-09T04:52:48.075Z,20.91
2018-08-09T04:53:48.064Z,20.83
2018-08-09T04:54:48.249Z,20.88
2018-08-09T04:55:48.080Z,21.08
2018-08-09T04:56:48.022Z,21.08
2018-08-09T04:57:48.048Z,21.11
2018-08-09T04:58:48.024Z,20.98
2018-08-09T04:59:48.067Z,20.97
2018-08-09T05:00:48.084Z,21.01
2018-08-09T05:01:48.076Z,21.08
2018-08-09T05:02:48.584Z,20.91
2018-08-09T05:03:48.077Z,21.12
2018-08-09T05:04:48.578Z,21.12
2018-08-09T05:05:48.055Z,21.08
2018-08-09T05:06:48.205Z,21.12
2018-08-09T05:07:48.218Z,21.01
2018-08-09T05:08:48.527Z,20.98
2018-08-09T05:09:48.579Z,21.06
2018-08-09T05:10:48.558Z,20.97
2018-08-09T05:11:48.105Z,21.00
2018-08-09T05:12:48.064Z,20.98
2018-08-09T05:13:48.558Z,21.03
2018-08-09T05:14:48.326Z,21.06
2018-08-09T05:15:48.227Z,21.16
2018-08-09T05:16:48.118Z,21.24
2018-08-09T05:17:48.082Z,21.13
2018-08-09T05:18:48.073Z,21.16
2018-08-09T05:19:48.225Z,21.21
2018-08-09T05:20:48.087Z,21.15
2018-08-09T05:21:48.278Z,21.27
2018-08-09T05:22:48.053Z,21.26
2018-08-09T05:23:48.082Z,21.24
2018-08-09T05:24:48.034Z,21.27
2018-08-09T05:25:48.738Z,21.33
2018-08-09T05:26:48.027Z,21.37
2018-08-09T05:27:47.991Z,21.34
2018-08-09T05:28:48.245Z,21.24
2018-08-09T05:29:48.273Z,21.37
2018-08-09T05:30:48.091Z,21.42
2018-08-09T05:31:48.091Z,21.42
2018-08-09T05:32:48.590Z,21.48
2018-08-09T05:33:48.280Z,21.38
2018-08-09T05:34:48.108Z,21.45
2018-08-09T05:35:48.587Z,21.38
2018-08-09T05:36:48.447Z,21.37
2018-08-09T05:37:48.577Z,21.37
2018-08-09T05:38:48.096Z,21.33
2018-08-09T05:39:48.038Z,21.42
2018-08-09T05:40:48.275Z,21.38
2018-08-09T05:41:48.711Z,21.40
2018-08-09T05:42:48.062Z,21.33
2018-08-09T05:43:48.514Z,21.40
2018-08-09T05:44:48.285Z,21.48
2018-08-09T05:45:48.110Z,21.45
2018-08-09T05:46:48.378Z,21.42
2018-08-09T05:47:48.590Z,21.51
2018-08-09T05:48:48.595Z,21.56
2018-08-09T05:49:48.863Z,21.56
2018-08-09T05:50:49.673Z,21.56
2018-08-09T05:51:46.567Z,21.51
2018-08-09T05:52:48.692Z,21.51
2018-08-09T05:53:47.040Z,21.56
2018-08-09T05:54:46.960Z,21.59
2018-08-09T05:55:47.298Z,21.51
2018-08-09T05:56:48.005Z,21.53
2018-08-09T05:57:48.235Z,21.42
2018-08-09T05:58:47.988Z,21.36
2018-08-09T05:59:46.656Z,21.42
2018-08-09T06:00:46.623Z,21.43
2018-08-09T06:01:48.696Z,21.42
2018-08-09T06:02:47.991Z,21.46
2018-08-09T06:03:48.078Z,21.55
2018-08-09T06:04:48.512Z,21.42
2018-08-09T06:05:47.666Z,21.48
2018-08-09T06:06:47.787Z,21.46
2018-08-09T06:07:47.338Z,21.49
2018-08-09T06:08:46.568Z,21.59
2018-08-09T06:09:48.062Z,21.58
2018-08-09T06:10:47.573Z,21.51
2018-08-09T06:11:47.579Z,21.67
2018-08-09T06:12:47.793Z,21.70
2018-08-09T06:13:46.600Z,21.66
2018-08-09T06:14:46.570Z,21.58
2018-08-09T06:15:46.713Z,21.55
2018-08-09T06:16:46.635Z,21.58
2018-08-09T06:17:47.600Z,21.51
2018-08-09T06:18:47.846Z,21.40
2018-08-09T06:19:46.588Z,21.45
2018-08-09T06:20:47.815Z,21.46
2018-08-09T06:21:46.652Z,21.38
2018-08-09T06:22:46.600Z,21.38
2018-08-09T06:23:46.580Z,21.43
2018-08-09T06:24:48.339Z,21.48
2018-08-09T06:25:48.927Z,21.46
2018-08-09T06:26:49.416Z,21.51
2018-08-09T06:27:46.553Z,21.59
2018-08-09T06:28:47.742Z,21.56
2018-08-09T06:29:46.556Z,21.55
2018-08-09T06:30:46.667Z,21.67
2018-08-09T06:31:46.562Z,21.61
2018-08-09T06:32:47.747Z,21.61
2018-08-09T06:33:47.977Z,21.63
2018-08-09T06:34:48.427Z,21.66
2018-08-09T06:35:46.575Z,21.63
2018-08-09T06:36:48.464Z,21.74
2018-08-09T06:37:48.222Z,21.66
2018-08-09T06:38:47.614Z,21.73
2018-08-09T06:39:47.739Z,21.59
2018-08-09T06:40:48.080Z,21.74
2018-08-09T06:41:46.652Z,21.74
2018-08-09T06:42:48.380Z,21.79
2018-08-09T06:43:48.316Z,21.86
2018-08-09T06:44:48.109Z,21.82
2018-08-09T06:45:46.665Z,21.74
2018-08-09T06:46:46.709Z,21.82
2018-08-09T06:47:48.700Z,21.83
2018-08-09T06:48:48.110Z,21.86
2018-08-09T06:49:48.598Z,21.85
2018-08-09T06:50:47.752Z,21.96
2018-08-09T06:51:46.628Z,22.02
2018-08-09T06:52:48.109Z,21.94
2018-08-09T06:53:48.088Z,21.79
2018-08-09T06:54:48.160Z,21.82
2018-08-09T06:55:47.773Z,21.94
2018-08-09T06:56:47.924Z,21.98
2018-08-09T06:57:48.496Z,21.82
2018-08-09T06:58:48.022Z,21.86
2018-08-09T06:59:47.549Z,22.04
2018-08-09T07:00:47.680Z,21.90
2018-08-09T07:01:48.037Z,21.91
2018-08-09T07:02:48.102Z,21.90
2018-08-09T07:03:50.237Z,21.99
2018-08-09T07:04:47.737Z,21.98
2018-08-09T07:05:48.148Z,21.86
2018-08-09T07:06:48.139Z,21.90
2018-08-09T07:07:48.012Z,21.93
2018-08-09T07:08:48.695Z,21.85
2018-08-09T07:09:47.672Z,21.85
2018-08-09T07:10:47.535Z,21.73
2018-08-09T07:11:47.783Z,21.83
2018-08-09T07:12:48.110Z,22.06
2018-08-09T07:13:47.646Z,22.02
2018-08-09T07:14:48.604Z,22.04
2018-08-09T07:15:48.123Z,22.02
2018-08-09T07:16:48.009Z,22.17
2018-08-09T07:17:48.074Z,22.14
2018-08-09T07:18:49.762Z,22.23
2018-08-09T07:19:48.082Z,22.15
2018-08-09T07:20:48.128Z,21.90
2018-08-09T07:21:48.175Z,22.01
2018-08-09T07:22:49.513Z,22.09
2018-08-09T07:23:48.123Z,22.17
2018-08-09T07:24:48.342Z,22.14
2018-08-09T07:25:48.411Z,22.15
2018-08-09T07:26:48.182Z,22.17
2018-08-09T07:27:47.662Z,22.05
2018-08-09T07:28:48.110Z,21.91
2018-08-09T07:29:47.687Z,22.06
2018-08-09T07:30:48.129Z,22.09
2018-08-09T07:31:48.341Z,22.19
2018-08-09T07:32:48.310Z,22.31
2018-08-09T07:33:48.425Z,22.26
2018-08-09T07:34:48.190Z,22.14
2018-08-09T07:35:46.696Z,22.23
2018-08-09T07:36:46.620Z,22.38
2018-08-09T07:37:48.282Z,22.51
2018-08-09T07:38:48.749Z,22.59
2018-08-09T07:39:48.216Z,22.54
2018-08-09T07:40:48.193Z,22.67
2018-08-09T07:41:48.127Z,22.81
2018-08-09T07:42:48.176Z,22.59
2018-08-09T07:43:48.644Z,22.66
2018-08-09T07:44:48.142Z,22.79
2018-08-09T07:45:48.346Z,22.75
2018-08-09T07:46:48.394Z,22.97
2018-08-09T07:47:48.132Z,23.14
2018-08-09T07:48:48.385Z,23.18
2018-08-09T07:49:48.384Z,23.22
2018-08-09T07:50:48.297Z,23.37
2018-08-09T07:51:47.763Z,23.35
2018-08-09T07:52:47.922Z,23.42
2018-08-09T07:54:48.780Z,23.44
2018-08-09T07:55:48.463Z,23.49
2018-08-09T07:56:48.814Z,23.47
2018-08-09T07:57:48.161Z,23.35
2018-08-09T07:58:48.287Z,23.31
2018-08-09T07:59:48.382Z,23.37
2018-08-09T08:00:48.594Z,23.22
2018-08-09T08:01:48.115Z,23.15
2018-08-09T08:02:48.377Z,23.25
2018-08-09T08:03:46.711Z,23.23
2018-08-09T08:04:48.392Z,23.38
2018-08-09T08:05:48.202Z,23.31
2018-08-09T08:06:49.908Z,23.29
2018-08-09T08:07:48.110Z,23.39
2018-08-09T08:08:48.100Z,23.34
2018-08-09T08:09:48.400Z,23.35
2018-08-09T08:10:48.346Z,23.44
2018-08-09T08:11:48.164Z,23.38
2018-08-09T08:12:48.702Z,23.38
2018-08-09T08:13:48.123Z,23.29
2018-08-09T08:14:48.314Z,23.31
2018-08-09T08:15:48.303Z,23.45
2018-08-09T08:16:48.401Z,23.39
2018-08-09T08:17:48.165Z,23.35
2018-08-09T08:18:48.688Z,23.38
2018-08-09T08:19:48.568Z,23.22
2018-08-09T08:20:48.387Z,23.39
2018-08-09T08:21:48.295Z,23.35
2018-08-09T08:22:48.364Z,23.39
2018-08-09T08:23:47.809Z,23.37
2018-08-09T08:24:48.139Z,23.56
2018-08-09T08:25:50.302Z,23.59
2018-08-09T08:26:48.902Z,23.60
2018-08-09T08:27:48.155Z,23.62
2018-08-09T08:28:48.678Z,23.78
2018-08-09T08:29:50.791Z,23.89
2018-08-09T08:30:48.340Z,23.84
2018-08-09T08:31:48.293Z,23.89
2018-08-09T08:32:48.280Z,23.74
2018-08-09T08:33:48.360Z,23.72
2018-08-09T08:34:48.297Z,23.87
2018-08-09T08:35:48.600Z,23.75
2018-08-09T08:36:48.581Z,23.62
2018-08-09T08:37:48.865Z,23.78
2018-08-09T08:38:48.862Z,23.89
2018-08-09T08:39:48.658Z,24.05
2018-08-09T08:40:48.807Z,24.04
2018-08-09T08:41:48.292Z,24.09
2018-08-09T08:42:48.192Z,24.18
2018-08-09T08:43:48.711Z,24.23
2018-08-09T08:44:48.398Z,23.96
2018-08-09T08:45:48.185Z,24.04
2018-08-09T08:46:48.724Z,24.14
2018-08-09T08:47:48.253Z,24.45
2018-08-09T08:48:48.687Z,24.68
2018-08-09T08:49:48.825Z,24.79
2018-08-09T08:50:47.945Z,24.83
2018-08-09T08:51:47.802Z,24.86
2018-08-09T08:52:48.305Z,24.75
2018-08-09T08:53:48.805Z,24.71
2018-08-09T08:54:48.331Z,24.86
2018-08-09T08:55:48.391Z,24.83
2018-08-09T08:56:48.816Z,24.83
2018-08-09T08:57:47.920Z,24.92
2018-08-09T08:58:48.384Z,24.90
2018-08-09T08:59:48.205Z,24.90
2018-08-09T09:00:48.218Z,24.68
2018-08-09T09:01:48.084Z,24.74
2018-08-09T09:02:48.591Z,24.84
2018-08-09T09:03:48.243Z,24.82
2018-08-09T09:04:49.053Z,24.55
2018-08-09T09:05:50.194Z,24.56
2018-08-09T09:06:48.674Z,24.64
2018-08-09T09:07:48.320Z,24.59
2018-08-09T09:08:52.012Z,24.67
2018-08-09T09:09:48.210Z,24.66
2018-08-09T09:10:48.871Z,24.77
2018-08-09T09:11:48.227Z,24.80
2018-08-09T09:12:50.414Z,24.82
2018-08-09T09:13:48.771Z,24.70
2018-08-09T09:14:48.155Z,24.82
2018-08-09T09:15:48.711Z,24.87
2018-08-09T09:16:48.372Z,24.94
2018-08-09T09:17:48.429Z,25.09
2018-08-09T09:18:48.234Z,25.22
2018-08-09T09:19:48.479Z,25.31
2018-08-09T09:20:48.590Z,25.45
2018-08-09T09:21:48.296Z,25.24
2018-08-09T09:22:48.279Z,25.34
2018-08-09T09:23:48.177Z,25.31
2018-08-09T09:24:50.509Z,25.24
2018-08-09T09:25:48.370Z,24.98
2018-08-09T09:27:48.390Z,25.12
2018-08-09T09:28:50.291Z,25.24
2018-08-09T09:29:48.311Z,25.22
2018-08-09T09:30:48.554Z,25.26
2018-08-09T09:31:48.305Z,25.35
2018-08-09T09:32:50.159Z,25.29
2018-08-09T09:33:48.323Z,25.56
2018-08-09T09:34:48.898Z,25.54
2018-08-09T09:35:48.325Z,25.75
2018-08-09T09:36:48.900Z,25.69
2018-08-09T09:37:48.321Z,25.85
2018-08-09T09:38:48.375Z,25.98
2018-08-09T09:39:48.692Z,26.11
2018-08-09T09:40:48.597Z,25.94
2018-08-09T09:41:47.972Z,25.81
2018-08-09T09:42:48.667Z,25.78
2018-08-09T09:43:48.878Z,25.89
2018-08-09T09:44:47.971Z,25.83
2018-08-09T09:45:48.690Z,25.79
2018-08-09T09:46:48.303Z,25.90
2018-08-09T09:47:48.885Z,26.03
2018-08-09T09:48:47.990Z,26.21
2018-08-09T09:49:48.924Z,26.06
2018-08-09T09:50:49.172Z,26.23
2018-08-09T09:51:48.667Z,26.35
2018-08-09T09:52:48.758Z,26.11
2018-08-09T09:53:48.403Z,26.11
2018-08-09T09:54:49.206Z,26.06
2018-08-09T09:55:48.617Z,26.28
2018-08-09T09:56:50.886Z,26.03
2018-08-09T09:57:48.635Z,25.86
2018-08-09T09:58:48.314Z,26.21
2018-08-09T09:59:48.784Z,26.47
2018-08-09T10:00:48.421Z,26.49
2018-08-09T10:01:48.735Z,26.46
2018-08-09T10:02:48.394Z,26.79
2018-08-09T10:03:48.907Z,26.71
2018-08-09T10:04:48.452Z,26.50
2018-08-09T10:05:48.040Z,26.68
2018-08-09T10:06:48.721Z,26.69
2018-08-09T10:07:50.650Z,26.65
2018-08-09T10:08:50.698Z,26.81
2018-08-09T10:09:50.163Z,26.84
2018-08-09T10:10:48.483Z,26.68
2018-08-09T10:11:50.348Z,26.76
2018-08-09T10:12:50.408Z,26.79
2018-08-09T10:13:50.344Z,26.60
2018-08-09T10:14:48.915Z,26.88
2018-08-09T10:15:48.751Z,27.02
2018-08-09T10:16:50.396Z,27.11
2018-08-09T10:17:48.836Z,26.83
2018-08-09T10:18:48.950Z,26.75
2018-08-09T10:19:50.901Z,26.88
2018-08-09T10:20:50.592Z,26.98
2018-08-09T10:21:48.451Z,27.25
2018-08-09T10:22:49.302Z,27.55
2018-08-09T10:23:48.795Z,27.49
2018-08-09T10:24:48.760Z,27.35
2018-08-09T10:25:48.766Z,27.38
2018-08-09T10:26:48.424Z,27.35
2018-08-09T10:27:49.023Z,27.21
2018-08-09T10:28:48.795Z,27.30
2018-08-09T10:29:48.982Z,27.28
2018-08-09T10:30:49.242Z,27.42
2018-08-09T10:31:49.336Z,27.52
2018-08-09T10:32:49.511Z,27.48
2018-08-09T10:33:49.293Z,27.49
2018-08-09T10:34:49.227Z,27.52
2018-08-09T10:35:49.198Z,27.58
2018-08-09T10:36:48.124Z,27.53
2018-08-09T10:37:49.198Z,27.24
2018-08-09T10:38:48.860Z,27.11
2018-08-09T10:39:49.217Z,26.97
2018-08-09T10:40:49.302Z,27.11
2018-08-09T10:41:48.462Z,27.27
2018-08-09T10:42:48.761Z,27.27
2018-08-09T10:43:49.017Z,27.11
2018-08-09T10:44:48.773Z,27.24
2018-08-09T10:45:49.219Z,27.27
2018-08-09T10:46:48.831Z,27.34
2018-08-09T10:47:48.767Z,27.49
2018-08-09T10:48:48.865Z,27.65
2018-08-09T10:49:49.163Z,27.53
2018-08-09T10:50:48.941Z,27.49
2018-08-09T10:51:48.721Z,27.50
2018-08-09T10:52:49.232Z,27.35
2018-08-09T10:53:48.866Z,27.35
2018-08-09T10:54:49.228Z,27.62
2018-08-09T10:55:48.989Z,27.62
2018-08-09T10:56:49.237Z,27.90
2018-08-09T10:57:48.765Z,28.11
2018-08-09T10:58:49.280Z,28.13
2018-08-09T10:59:48.963Z,28.39
2018-08-09T11:00:48.737Z,28.45
2018-08-09T11:01:48.879Z,28.55
2018-08-09T11:02:48.963Z,28.65
2018-08-09T11:03:49.282Z,28.55
2018-08-09T11:04:49.098Z,28.38
2018-08-09T11:05:49.231Z,28.32
2018-08-09T11:06:49.235Z,27.95
2018-08-09T11:07:49.275Z,28.11
2018-08-09T11:08:49.218Z,28.43
2018-08-09T11:09:50.570Z,28.64
2018-08-09T11:10:49.879Z,28.89
2018-08-09T11:11:49.277Z,29.05
2018-08-09T11:12:50.668Z,29.02
2018-08-09T11:13:49.472Z,28.73
2018-08-09T11:14:48.773Z,28.38
2018-08-09T11:15:49.243Z,28.17
2018-08-09T11:16:48.840Z,28.38
2018-08-09T11:17:48.745Z,28.50
2018-08-09T11:18:48.782Z,28.48
2018-08-09T11:19:48.732Z,28.73
2018-08-09T11:20:48.727Z,28.82
2018-08-09T11:21:48.755Z,28.91
2018-08-09T11:22:49.368Z,29.33
2018-08-09T11:23:48.733Z,29.25
2018-08-09T11:24:48.682Z,29.23
2018-08-09T11:26:49.378Z,29.21
2018-08-09T11:27:48.790Z,29.21
2018-08-09T11:28:48.936Z,29.27
2018-08-09T11:29:48.675Z,28.95
2018-08-09T11:30:48.882Z,29.37
2018-08-09T11:31:48.925Z,29.20
2018-08-09T11:32:48.982Z,28.98
2018-08-09T11:34:08.988Z,29.29
2018-08-09T11:34:49.260Z,29.20
2018-08-09T11:35:48.754Z,29.21
2018-08-09T11:36:48.765Z,29.17
2018-08-09T11:37:48.383Z,28.92
2018-08-09T11:38:48.774Z,28.83
2018-08-09T11:39:51.035Z,28.88
2018-08-09T11:40:48.551Z,29.05
2018-08-09T11:41:49.366Z,29.35
2018-08-09T11:42:48.767Z,29.58
2018-08-09T11:43:48.863Z,29.64
2018-08-09T11:44:48.857Z,29.62
2018-08-09T11:47:21.708Z,29.64
2018-08-09T11:48:22.890Z,29.52
2018-08-09T11:50:16.884Z,29.79
2018-08-09T11:51:17.337Z,30.06
2018-08-09T11:53:11.472Z,30.16
2018-08-09T11:54:12.027Z,30.26
2018-08-09T11:56:06.173Z,30.56
2018-08-09T11:57:05.904Z,30.56
2018-08-09T11:59:00.598Z,30.56
2018-08-09T12:00:01.426Z,30.73
2018-08-09T12:01:55.589Z,30.51
2018-08-09T12:02:55.552Z,30.51
2018-08-09T12:04:50.008Z,31.04
2018-08-09T12:05:50.118Z,30.70
2018-08-09T12:07:44.046Z,30.66
2018-08-09T12:08:44.864Z,31.04
2018-08-09T12:10:39.548Z,30.98
2018-08-09T12:12:53.511Z,31.79
2018-08-09T12:13:55.692Z,31.57
2018-08-09T12:15:48.834Z,31.69
2018-08-09T12:16:48.796Z,31.91
2018-08-09T12:18:42.677Z,32.34
2018-08-09T12:19:43.114Z,32.25
2018-08-09T12:21:37.701Z,32.21
2018-08-09T12:22:38.373Z,31.97
2018-08-09T12:24:32.361Z,31.84
2018-08-09T12:25:33.005Z,31.46
2018-08-09T12:27:27.868Z,31.97
2018-08-09T12:28:27.152Z,32.39
2018-08-09T12:30:21.457Z,33.09
2018-08-09T12:31:22.201Z,33.15
2018-08-09T12:33:16.924Z,33.24
2018-08-09T12:34:16.978Z,33.33
2018-08-09T12:36:11.054Z,33.09
2018-08-09T12:37:11.206Z,32.50
2018-08-09T12:39:06.707Z,32.83
2018-08-09T12:40:06.157Z,32.93
2018-08-09T12:43:00.883Z,32.63
2018-08-09T12:44:55.425Z,31.92
2018-08-09T12:45:55.518Z,32.25
2018-08-09T12:47:49.656Z,32.58
2018-08-09T12:48:50.681Z,32.49
2018-08-09T12:50:45.016Z,31.99
2018-08-09T12:51:45.428Z,31.76
2018-08-09T12:52:45.194Z,31.62
2018-08-09T12:53:44.504Z,31.59
2018-08-09T12:54:44.978Z,31.64
2018-08-09T12:55:44.506Z,31.54
2018-08-09T12:56:44.941Z,31.56
2018-08-09T12:57:45.470Z,31.30
2018-08-09T12:58:44.639Z,31.10
2018-08-09T12:59:44.999Z,31.23
2018-08-09T13:00:44.543Z,30.81
2018-08-09T13:01:45.649Z,31.12
2018-08-09T13:02:45.378Z,31.31
2018-08-09T13:03:44.982Z,31.31
2018-08-09T13:04:45.127Z,31.22
2018-08-09T13:05:45.050Z,31.12
2018-08-09T13:06:45.206Z,30.85
2018-08-09T13:07:45.581Z,31.05
2018-08-09T13:08:45.002Z,31.00
2018-08-09T13:09:45.022Z,30.90
2018-08-09T13:10:45.388Z,30.98
2018-08-09T13:11:46.834Z,30.78
2018-08-09T13:12:47.043Z,30.98
2018-08-09T13:13:45.090Z,31.04
2018-08-09T13:14:45.598Z,30.97
2018-08-09T13:15:45.446Z,30.85
2018-08-09T13:16:44.782Z,30.45
2018-08-09T13:17:45.157Z,30.34
2018-08-09T13:18:45.252Z,30.44
2018-08-09T13:19:45.221Z,30.64